Time;durP1;ratioP1;P1;durP2;ratioP2;P2;SDS_P1;SDS_P2;PMS_P1;PMS_P2;Temp;Humidity;BMP_temperature;BMP_pressure;BME280_temperature;BME280_humidity;BME280_pressure;Samples;Min_cycle;Max_cycle;Signal;HPM_P1;HPM_P2
2023/05/29 00:04:16;;;;;;;15.00;11.10;;;;;;;10.51;100.00;99098.34;99295;1343;65897;-80
2023/05/29 00:11:30;;;;;;;16.50;11.20;;;;;;;10.41;100.00;99097.38;99184;1341;62883;-77
2023/05/29 00:15:30;;;;;;;15.70;10.70;;;;;;;10.38;100.00;99095.81;102607;1293;600389;-77
2023/05/29 00:23:06;;;;;;;12.80;10.20;;;;;;;10.19;100.00;99089.48;101471;1307;59532;-77
2023/05/29 00:26:54;;;;;;;11.80;9.10;;;;;;;10.07;100.00;99084.77;101005;1311;65057;-77
2023/05/29 00:30:50;;;;;;;13.80;10.00;;;;;;;9.98;100.00;99082.31;100473;1318;60779;-77
2023/05/29 00:34:15;;;;;;;14.60;10.80;;;;;;;9.94;100.00;99081.90;100776;1310;65464;-77
2023/05/29 00:41:54;;;;;;;15.00;9.60;;;;;;;9.80;100.00;99075.64;100388;1319;59600;-77
2023/05/29 00:49:08;;;;;;;14.60;9.60;;;;;;;9.59;100.00;99078.56;100388;1322;61483;-77
2023/05/29 00:52:58;;;;;;;14.20;9.70;;;;;;;9.50;100.00;99078.40;99850;1327;62771;-78
2023/05/29 00:56:46;;;;;;;12.00;9.10;;;;;;;9.43;100.00;99082.52;99498;1330;59902;-78
2023/05/29 01:00:40;;;;;;;14.30;9.60;;;;;;;9.39;100.00;99081.36;99289;1333;59896;-78
2023/05/29 01:04:33;;;;;;;14.50;8.80;;;;;;;9.35;100.00;99078.25;98591;1348;65710;-78
2023/05/29 01:15:31;;;;;;;8.80;7.60;;;;;;;9.15;100.00;99083.52;98589;1350;60004;-76
2023/05/29 01:19:05;;;;;;;14.00;10.80;;;;;;;9.10;100.00;99084.70;102634;1289;601076;-76
2023/05/29 01:23:03;;;;;;;15.40;11.20;;;;;;;9.03;100.00;99078.05;102321;1300;59525;-78
2023/05/29 01:34:25;;;;;;;14.40;10.70;;;;;;;8.88;100.00;99086.37;101292;1312;61185;-78
2023/05/29 01:49:08;;;;;;;14.10;10.40;;;;;;;8.66;100.00;99082.34;99919;1329;62147;-78
2023/05/29 01:56:21;;;;;;;12.90;10.30;;;;;;;8.64;100.00;99078.88;99619;1336;66048;-76
2023/05/29 01:59:55;;;;;;;15.50;12.10;;;;;;;8.66;100.00;99074.71;99406;1333;59746;-77
2023/05/29 02:03:05;;;;;;;16.20;11.50;;;;;;;8.68;100.00;99072.24;99192;1335;59720;-77
2023/05/29 02:13:28;;;;;;;13.90;12.00;;;;;;;8.67;100.00;99068.10;99426;1331;65512;-77
2023/05/29 02:17:05;;;;;;;15.70;11.60;;;;;;;8.67;100.00;99064.91;99229;1334;59750;-78
2023/05/29 02:20:33;;;;;;;13.40;10.60;;;;;;;8.66;100.00;99064.44;99337;1339;59846;-78
2023/05/29 02:24:05;;;;;;;14.20;10.70;;;;;;;8.64;100.00;99071.46;99160;1334;65020;-76
2023/05/29 02:31:33;;;;;;;13.00;9.60;;;;;;;8.61;100.00;99072.86;99506;1330;65504;-78
2023/05/29 02:38:36;;;;;;;14.10;10.80;;;;;;;8.54;100.00;99062.78;99538;1331;59823;-78
2023/05/29 02:42:28;;;;;;;13.20;10.80;;;;;;;8.52;100.00;99059.58;99918;1325;63043;-77
2023/05/29 02:46:08;;;;;;;14.90;10.80;;;;;;;8.50;100.00;99062.84;99558;1330;59714;-77
2023/05/29 02:50:00;;;;;;;12.50;9.80;;;;;;;8.49;100.00;99063.41;99050;1339;65366;-77
2023/05/29 02:53:23;;;;;;;;;;;;;;;8.51;100.00;99061.56;98883;1347;59813;-77
2023/05/29 02:57:25;;;;;;;11.10;9.50;;;;;;;8.52;100.00;99060.06;98593;1346;59791;-76
2023/05/29 03:01:04;;;;;;;16.50;10.50;;;;;;;8.55;100.00;99060.95;98455;1344;64780;-80
2023/05/29 03:04:56;;;;;;;17.50;11.30;;;;;;;8.62;100.00;99058.13;98596;1341;70785;-77
2023/05/29 03:08:44;;;;;;;13.30;10.50;;;;;;;8.73;100.00;99056.55;98717;1349;65571;-78
2023/05/29 03:12:43;;;;;;;4.60;4.30;;;;;;;8.80;100.00;99048.91;98554;1349;59816;-80
2023/05/29 03:16:29;;;;;;;13.60;10.50;;;;;;;8.86;100.00;99048.23;98535;1350;61258;-77
2023/05/29 03:20:11;;;;;;;5.30;4.90;;;;;;;8.87;100.00;99047.45;98664;1346;65961;-78
2023/05/29 03:30:36;;;;;;;14.80;11.40;;;;;;;9.14;100.00;99042.29;99674;1330;59814;-77
2023/05/29 03:41:56;;;;;;;15.70;10.00;;;;;;;9.70;100.00;99047.55;100096;1320;61438;-78
2023/05/29 03:49:23;;;;;;;16.70;10.10;;;;;;;10.46;100.00;99048.70;100802;1315;61204;-78
2023/05/29 03:56:26;;;;;;;13.30;10.30;;;;;;;11.49;100.00;99046.17;101245;1310;65886;-79
2023/05/29 04:11:26;;;;;;;10.60;8.70;;;;;;;14.40;96.98;99044.49;100893;1315;59419;-78
2023/05/29 04:15:26;;;;;;;9.80;8.50;;;;;;;14.92;90.87;99043.13;100485;1317;63069;-77
2023/05/29 04:18:52;;;;;;;11.40;8.40;;;;;;;15.33;88.60;99043.58;99639;1328;59833;-77
2023/05/29 04:22:39;;;;;;;12.60;8.60;;;;;;;15.96;86.32;99045.66;99403;1331;71108;-78
2023/05/29 04:30:26;;;;;;;11.60;7.90;;;;;;;16.69;79.33;99052.52;98925;1343;59851;-77
2023/05/29 04:38:02;;;;;;;12.60;9.00;;;;;;;17.11;75.68;99062.03;102602;1291;59274;-77
2023/05/29 04:41:38;;;;;;;12.40;9.70;;;;;;;17.46;74.44;99062.13;102566;1300;59378;-76
2023/05/29 05:00:20;;;;;;;15.60;9.80;;;;;;;19.94;68.77;99060.59;101577;1305;59281;-78
2023/05/29 05:04:06;;;;;;;13.20;9.60;;;;;;;20.35;66.97;99055.36;100936;1313;59483;-78
2023/05/29 05:07:38;;;;;;;11.70;9.20;;;;;;;20.53;65.57;99052.71;100942;1313;62459;-77
2023/05/29 05:19:12;;;;;;;11.90;9.20;;;;;;;20.70;63.06;99055.77;100453;1324;59484;-77
2023/05/29 05:26:55;;;;;;;13.00;11.20;;;;;;;20.65;60.84;99051.84;99514;1331;63416;-78
2023/05/29 05:30:55;;;;;;;8.80;7.90;;;;;;;20.59;59.79;99051.02;99726;1334;59312;-78
2023/05/29 05:46:17;;;;;;;9.60;7.00;;;;;;;21.21;57.34;99064.85;99845;1330;63101;-80
2023/05/29 05:49:49;;;;;;;9.40;7.00;;;;;;;21.44;56.88;99069.20;100568;1330;59730;-77
2023/05/29 05:53:16;;;;;;;;;;;;;;;21.67;56.66;99071.50;100307;1326;62671;-78
2023/05/29 05:57:10;;;;;;;9.60;6.40;;;;;;;21.81;55.67;99081.10;101703;1318;61647;-78
2023/05/29 06:05:09;;;;;;;8.30;7.20;;;;;;;21.78;54.09;99084.73;101684;1334;63185;-80
2023/05/29 06:09:05;;;;;;;6.80;5.80;;;;;;;21.96;53.55;99081.61;99061;1341;60003;-79
2023/05/29 06:12:48;;;;;;;8.40;6.10;;;;;;;22.14;52.96;99076.13;98696;1341;64316;-79
2023/05/29 06:16:31;;;;;;;7.60;6.90;;;;;;;22.40;52.93;99073.88;99110;1344;60084;-78
2023/05/29 06:23:53;;;;;;;8.90;7.00;;;;;;;22.81;52.50;99081.30;98714;1342;65249;-79
2023/05/29 06:31:28;;;;;;;10.70;9.60;;;;;;;23.12;51.59;99091.00;101342;1311;59302;-79
2023/05/29 06:35:23;;;;;;;10.80;9.00;;;;;;;22.85;51.65;99096.98;100718;1314;59507;-77
2023/05/29 06:42:56;;;;;;;15.10;8.50;;;;;;;22.94;52.04;99099.71;100258;1317;61182;-76
2023/05/29 06:47:02;;;;;;;10.50;6.90;;;;;;;23.15;51.25;99105.73;100363;1318;65864;-76
2023/05/29 06:50:54;;;;;;;8.10;6.90;;;;;;;23.16;50.87;99108.22;100401;1323;59462;-77
2023/05/29 06:54:42;;;;;;;8.00;6.80;;;;;;;23.24;50.41;99107.41;100041;1328;59586;-77
2023/05/29 07:01:56;;;;;;;10.10;6.10;;;;;;;23.38;49.90;99106.73;99276;1342;59368;-76
2023/05/29 07:04:21;;;;;;;7.40;6.50;;;;;;;23.49;49.82;99109.70;99238;1332;66647;-76
2023/05/29 07:06:47;;;;;;;10.90;6.50;;;;;;;23.53;49.50;99108.33;99571;1330;59845;-77
2023/05/29 07:09:14;;;;;;;11.80;6.90;;;;;;;23.61;49.22;99111.91;103118;1286;59693;-77
2023/05/29 07:11:41;;;;;;;8.90;7.00;;;;;;;23.58;48.83;99112.90;104088;1277;59777;-77
2023/05/29 07:14:08;;;;;;;15.10;8.30;;;;;;;23.49;48.00;99112.08;104477;1277;61491;-77
2023/05/29 07:16:34;;;;;;;33.40;14.30;;;;;;;23.33;47.94;99111.83;104509;1276;64701;-77
2023/05/29 07:19:01;;;;;;;26.70;13.00;;;;;;;23.07;47.53;99112.60;104505;1276;59812;-77
2023/05/29 07:21:27;;;;;;;8.50;6.50;;;;;;;22.75;47.78;99115.16;104479;1273;59713;-77
2023/05/29 07:23:54;;;;;;;8.60;6.60;;;;;;;22.57;48.07;99123.17;104476;1277;65146;-77
2023/05/29 07:26:22;;;;;;;11.30;6.40;;;;;;;22.37;47.96;99124.36;104469;1276;60857;-77
2023/05/29 07:28:49;;;;;;;6.60;5.90;;;;;;;22.13;48.49;99129.29;104493;1275;65572;-78
2023/05/29 07:31:16;;;;;;;9.30;7.20;;;;;;;22.10;49.22;99127.64;104472;1276;59604;-77
2023/05/29 07:33:42;;;;;;;6.90;6.20;;;;;;;22.18;49.15;99128.20;104763;1266;59759;-79
2023/05/29 07:36:09;;;;;;;8.80;6.40;;;;;;;22.16;49.42;99128.76;105051;1260;65054;-78
2023/05/29 07:38:36;;;;;;;10.40;6.60;;;;;;;22.09;49.08;99131.92;105307;1259;61122;-79
2023/05/29 07:41:02;;;;;;;6.80;6.10;;;;;;;21.98;49.62;99136.46;105383;1262;65234;-78
2023/05/29 07:43:29;;;;;;;9.80;7.10;;;;;;;22.03;50.21;99135.67;105388;1262;59734;-76
2023/05/29 07:45:56;;;;;;;12.50;6.50;;;;;;;22.15;50.11;99134.42;105426;1260;59651;-76
2023/05/29 07:48:22;;;;;;;8.00;6.70;;;;;;;22.09;49.01;99136.38;105456;1262;65282;-76
2023/05/29 07:50:49;;;;;;;8.80;6.50;;;;;;;21.77;48.81;99139.25;105459;1261;60424;-78
2023/05/29 07:53:15;;;;;;;8.00;5.40;;;;;;;21.55;49.26;99140.96;105450;1259;65564;-77
2023/05/29 07:55:42;;;;;;;7.70;5.90;;;;;;;21.53;49.88;99138.29;105446;1261;59632;-77
2023/05/29 07:58:11;;;;;;;10.50;6.00;;;;;;;21.68;50.11;99141.02;105458;1262;59829;-77
2023/05/29 08:00:38;;;;;;;7.70;5.80;;;;;;;21.81;50.04;99139.23;105455;1263;64501;-77
2023/05/29 08:03:05;;;;;;;7.20;4.90;;;;;;;21.88;49.77;99140.44;105418;1262;60616;-78
2023/05/29 08:05:31;;;;;;;8.40;5.60;;;;;;;22.01;50.49;99140.61;105436;1262;65395;-77
2023/05/29 08:07:58;;;;;;;11.20;6.00;;;;;;;22.12;50.13;99137.74;105401;1262;59635;-76
2023/05/29 08:13:49;;;;;;;9.70;6.70;;;;;;;22.07;50.32;99139.22;105431;1260;63252;-76
2023/05/29 08:16:16;;;;;;;7.50;6.10;;;;;;;22.08;50.26;99137.55;105425;1257;61170;-77
2023/05/29 08:18:43;;;;;;;10.70;6.50;;;;;;;22.12;50.31;99137.09;105355;1259;62843;-77
2023/05/29 08:21:10;;;;;;;10.60;5.90;;;;;;;22.29;50.61;99136.16;105453;1263;59646;-77
2023/05/29 08:23:37;;;;;;;7.20;5.40;;;;;;;22.49;50.85;99133.02;105539;1257;60146;-76
2023/05/29 08:26:04;;;;;;;8.80;5.40;;;;;;;22.65;50.68;99128.98;105376;1262;63264;-77
2023/05/29 08:28:31;;;;;;;9.00;6.00;;;;;;;22.81;50.43;99126.55;105347;1260;59793;-77
2023/05/29 08:30:58;;;;;;;7.30;5.70;;;;;;;22.92;50.04;99125.71;105407;1259;62908;-77
2023/05/29 08:33:24;;;;;;;7.50;5.90;;;;;;;22.93;50.05;99126.25;105431;1257;59740;-77
2023/05/29 08:35:51;;;;;;;9.10;5.80;;;;;;;22.96;50.07;99127.20;105359;1266;59598;-77
2023/05/29 08:38:18;;;;;;;6.30;5.30;;;;;;;23.03;49.81;99129.38;105409;1258;63045;-77
2023/05/29 08:40:44;;;;;;;11.80;5.90;;;;;;;22.94;49.17;99128.73;109033;1258;60305;-77
2023/05/29 08:43:21;;;;;;;7.10;5.20;;;;;;;22.87;49.39;99126.59;108864;1259;65169;-77
2023/05/29 08:45:53;;;;;;;7.70;5.30;;;;;;;22.88;49.54;99125.22;109015;1257;57430;-77
2023/05/29 08:48:23;;;;;;;7.50;5.10;;;;;;;22.93;49.34;99126.42;109063;1257;57408;-78
2023/05/29 08:50:53;;;;;;;6.90;5.20;;;;;;;22.90;48.85;99125.96;109005;1257;65494;-77
2023/05/29 08:53:21;;;;;;;;;;;;;;;22.94;49.27;99121.69;109094;1257;60696;-77
2023/05/29 08:55:51;;;;;;;5.80;4.60;;;;;;;22.97;49.34;99119.99;109099;1257;62569;-77
2023/05/29 08:58:21;;;;;;;6.60;4.90;;;;;;;23.09;48.87;99121.22;109061;1257;57391;-77
2023/05/29 09:00:49;;;;;;;11.20;4.30;;;;;;;23.20;48.56;99118.89;109035;1257;57532;-77
2023/05/29 09:03:17;;;;;;;7.40;4.20;;;;;;;23.19;48.46;99122.50;109110;1257;63212;-77
2023/05/29 09:05:45;;;;;;;6.20;4.00;;;;;;;23.23;48.60;99119.48;109086;1257;61048;-77
2023/05/29 09:08:13;;;;;;;7.90;4.30;;;;;;;23.46;49.26;99112.90;109065;1257;65179;-77
2023/05/29 09:10:44;;;;;;;6.80;4.20;;;;;;;23.67;48.74;99111.17;108998;1257;57478;-77
2023/05/29 09:13:13;;;;;;;7.10;5.50;;;;;;;23.81;48.43;99111.73;109068;1257;57478;-77
2023/05/29 09:15:42;;;;;;;6.00;4.00;;;;;;;23.85;47.84;99113.63;109040;1261;65230;-77
2023/05/29 09:18:10;;;;;;;;;;;;;;;23.75;47.79;99115.42;109067;1258;61083;-77
2023/05/29 09:20:36;;;;;;;7.30;4.80;;;;;;;23.74;47.54;99111.34;109020;1258;74197;-77
2023/05/29 09:23:05;;;;;;;7.10;4.80;;;;;;;23.59;46.24;99110.91;109027;1257;57403;-77
2023/05/29 09:25:34;;;;;;;7.70;3.50;;;;;;;23.45;46.50;99110.93;109072;1257;57393;-77
2023/05/29 09:28:07;;;;;;;4.40;3.50;;;;;;;23.53;46.45;99111.30;109052;1257;63174;-77
2023/05/29 09:30:41;;;;;;;5.50;3.30;;;;;;;23.68;46.19;99112.54;109087;1257;58959;-77
2023/05/29 09:33:12;;;;;;;5.20;4.00;;;;;;;23.79;45.98;99105.66;109066;1257;62911;-77
2023/05/29 09:35:44;;;;;;;10.70;4.40;;;;;;;23.81;44.70;99104.68;109047;1257;57407;-77
2023/05/29 09:38:13;;;;;;;7.10;4.50;;;;;;;23.65;44.46;99111.52;109056;1257;57415;-76
2023/05/29 09:40:41;;;;;;;5.50;4.10;;;;;;;23.59;45.10;99111.32;109057;1257;65946;-76
2023/05/29 09:43:19;;;;;;;5.50;4.30;;;;;;;23.66;44.85;99111.95;109057;1257;58859;-76
2023/05/29 09:45:50;;;;;;;9.70;4.00;;;;;;;23.71;45.43;99109.87;109044;1258;64814;-76
2023/05/29 09:48:18;;;;;;;5.40;4.00;;;;;;;23.86;45.52;99109.83;108922;1263;57843;-76
2023/05/29 09:50:48;;;;;;;8.80;4.00;;;;;;;24.01;45.14;99108.06;108906;1257;57424;-76
2023/05/29 09:53:24;;;;;;;3.30;2.70;;;;;;;24.10;43.99;99112.59;109047;1257;64620;-76
2023/05/29 09:55:52;;;;;;;6.10;2.80;;;;;;;24.15;42.62;99109.43;109057;1257;60857;-76
2023/05/29 09:58:19;;;;;;;5.20;3.20;;;;;;;24.22;42.58;99109.16;109051;1257;62807;-75
2023/05/29 10:00:47;;;;;;;4.90;3.00;;;;;;;24.39;43.30;99109.98;109046;1257;57346;-76
2023/05/29 10:03:14;;;;;;;5.50;3.30;;;;;;;24.49;42.48;99108.26;109063;1261;57371;-77
2023/05/29 10:05:43;;;;;;;7.50;3.30;;;;;;;24.54;42.66;99106.27;109068;1257;63104;-76
2023/05/29 10:08:14;;;;;;;5.60;3.20;;;;;;;24.73;43.39;99103.31;109034;1258;60167;-76
2023/05/29 10:10:44;;;;;;;6.40;3.80;;;;;;;24.98;43.73;99098.34;109026;1258;65032;-76
2023/05/29 10:13:14;;;;;;;7.30;3.70;;;;;;;25.20;43.40;99099.33;109038;1258;57358;-76
2023/05/29 10:15:44;;;;;;;6.70;3.60;;;;;;;25.42;43.71;99094.92;109039;1257;57473;-76
2023/05/29 10:18:20;;;;;;;6.40;3.70;;;;;;;25.49;42.37;99093.11;109081;1258;65627;-77
2023/05/29 10:20:52;;;;;;;5.40;3.70;;;;;;;25.44;41.79;99095.95;109070;1258;61127;-77
2023/05/29 10:23:23;;;;;;;3.70;3.20;;;;;;;25.48;42.24;99091.95;108945;1257;65302;-77
2023/05/29 10:26:01;;;;;;;6.20;3.70;;;;;;;25.65;41.41;99095.04;108852;1257;57434;-79
2023/05/29 10:28:28;;;;;;;4.60;3.40;;;;;;;25.57;41.31;99097.33;109078;1257;57459;-75
2023/05/29 10:31:04;;;;;;;8.30;4.30;;;;;;;25.58;41.26;99097.08;109044;1257;64560;-75
2023/05/29 10:33:58;;;;;;;4.70;3.40;;;;;;;25.59;40.64;99095.86;109052;1257;60355;-76
2023/05/29 10:36:31;;;;;;;5.20;3.90;;;;;;;25.60;39.95;99091.73;109055;1257;63763;-76
2023/05/29 10:38:58;;;;;;;5.00;2.90;;;;;;;25.61;39.71;99089.42;108879;1257;57394;-76
2023/05/29 10:41:28;;;;;;;5.60;3.50;;;;;;;25.61;40.40;99087.04;108942;1257;57504;-76
2023/05/29 10:43:59;;;;;;;3.60;3.10;;;;;;;25.73;41.35;99089.39;109027;1257;64521;-76
2023/05/29 10:46:50;;;;;;;4.50;3.40;;;;;;;25.81;41.29;99090.30;109083;1258;60324;-77
2023/05/29 10:49:20;;;;;;;5.30;3.10;;;;;;;25.78;41.36;99087.71;109010;1257;64246;-76
2023/05/29 10:51:48;;;;;;;4.50;3.30;;;;;;;25.89;41.70;99086.94;109029;1257;58374;-77
2023/05/29 10:54:16;;;;;;;4.40;4.00;;;;;;;26.05;41.50;99085.78;109026;1258;58212;-76
2023/05/29 10:56:51;;;;;;;6.90;3.90;;;;;;;26.16;41.07;99082.91;108925;1257;65502;-76
2023/05/29 10:59:18;;;;;;;6.80;3.70;;;;;;;26.28;40.84;99078.23;109068;1257;60274;-77
2023/05/29 11:01:44;;;;;;;6.60;3.70;;;;;;;26.50;40.90;99075.50;108850;1259;64074;-76
2023/05/29 11:04:17;;;;;;;6.10;3.80;;;;;;;26.63;39.50;99072.83;109023;1257;58317;-76
2023/05/29 11:06:44;;;;;;;6.10;3.90;;;;;;;26.44;38.67;99072.80;109024;1260;58160;-76
2023/05/29 11:09:39;;;;;;;6.00;3.70;;;;;;;26.26;38.31;99077.00;108982;1260;63928;-77
2023/05/29 11:12:12;;;;;;;7.00;3.70;;;;;;;26.30;39.82;99073.36;108459;1267;61408;-77
2023/05/29 11:14:54;;;;;;;6.80;3.50;;;;;;;26.56;40.54;99068.13;108450;1267;62972;-77
2023/05/29 11:17:32;;;;;;;6.90;3.40;;;;;;;26.74;40.89;99065.34;108168;1267;58294;-78
2023/05/29 11:20:05;;;;;;;3.80;3.20;;;;;;;26.96;41.15;99066.08;108480;1267;58241;-77
2023/05/29 11:22:46;;;;;;;6.40;4.00;;;;;;;27.15;41.02;99065.91;108475;1267;66425;-76
2023/05/29 11:25:14;;;;;;;6.10;4.40;;;;;;;27.25;41.23;99063.63;108480;1267;60098;-76
2023/05/29 11:27:43;;;;;;;5.30;3.80;;;;;;;27.31;41.09;99066.96;108445;1267;62827;-77
2023/05/29 11:30:11;;;;;;;7.50;4.10;;;;;;;27.27;40.21;99069.06;108455;1267;58245;-77
2023/05/29 11:32:40;;;;;;;7.20;3.50;;;;;;;27.11;39.75;99068.39;108472;1267;58346;-76
2023/05/29 11:35:10;;;;;;;5.70;4.40;;;;;;;27.04;39.96;99064.03;108469;1267;66489;-77
2023/05/29 11:37:45;;;;;;;7.50;3.60;;;;;;;27.01;39.23;99063.42;108491;1267;60178;-77
2023/05/29 11:40:13;;;;;;;6.40;3.40;;;;;;;26.56;38.42;99065.75;108473;1267;63930;-76
2023/05/29 11:42:44;;;;;;;6.00;3.90;;;;;;;26.08;38.40;99068.79;108460;1267;58512;-78
2023/05/29 11:45:14;;;;;;;5.60;3.90;;;;;;;25.70;38.46;99072.27;108468;1267;58206;-76
2023/05/29 11:47:58;;;;;;;9.30;3.60;;;;;;;25.48;38.85;99072.39;108173;1267;65079;-77
2023/05/29 11:50:30;;;;;;;6.60;4.20;;;;;;;25.34;38.64;99074.53;109010;1260;60130;-76
2023/05/29 11:52:58;;;;;;;5.30;3.90;;;;;;;25.12;39.26;99074.02;109004;1258;65261;-76
2023/05/29 11:55:26;;;;;;;6.70;3.70;;;;;;;24.99;39.31;99071.48;109004;1259;58529;-76
2023/05/29 11:57:58;;;;;;;4.70;3.60;;;;;;;24.89;39.70;99069.65;109005;1259;58399;-76
2023/05/29 12:00:29;;;;;;;4.50;3.60;;;;;;;24.78;39.73;99066.10;109050;1259;64543;-76
2023/05/29 12:02:58;;;;;;;5.80;4.10;;;;;;;24.74;39.78;99062.98;108849;1260;60371;-77
2023/05/29 12:05:25;;;;;;;5.30;3.30;;;;;;;24.72;39.77;99063.73;108961;1260;64019;-76
2023/05/29 12:07:53;;;;;;;4.30;3.80;;;;;;;24.87;40.04;99061.92;109000;1258;58156;-77
2023/05/29 12:10:21;;;;;;;5.10;3.80;;;;;;;25.12;40.31;99058.40;109022;1258;58586;-77
2023/05/29 12:12:56;;;;;;;5.90;3.60;;;;;;;25.39;40.66;99051.45;109019;1259;65188;-76
2023/05/29 12:15:23;;;;;;;8.40;3.90;;;;;;;25.70;40.62;99050.73;108982;1262;59384;-77
2023/05/29 12:17:50;;;;;;;5.20;3.60;;;;;;;26.04;40.68;99047.42;109020;1258;65374;-77
2023/05/29 12:20:18;;;;;;;11.20;4.10;;;;;;;26.30;40.56;99040.37;109019;1260;58099;-77
2023/05/29 12:22:46;;;;;;;9.10;3.70;;;;;;;26.51;40.34;99039.30;109028;1259;58348;-78
2023/05/29 12:25:15;;;;;;;3.40;3.00;;;;;;;26.59;40.17;99035.30;108811;1260;66326;-77
2023/05/29 12:27:46;;;;;;;6.70;4.00;;;;;;;26.63;39.80;99034.44;108824;1259;58476;-77
2023/05/29 12:30:15;;;;;;;4.80;3.90;;;;;;;26.76;39.17;99028.23;108968;1260;65334;-77
2023/05/29 12:32:43;;;;;;;5.80;3.60;;;;;;;26.89;38.56;99023.39;109021;1259;58122;-76
2023/05/29 12:35:17;;;;;;;5.20;3.80;;;;;;;26.97;38.20;99019.50;109027;1258;58217;-77
2023/05/29 12:37:45;;;;;;;3.90;3.30;;;;;;;26.76;38.22;99022.02;108785;1264;64206;-76
2023/05/29 12:40:20;;;;;;;4.30;3.90;;;;;;;26.44;37.84;99022.27;109305;1254;59900;-76
2023/05/29 12:42:48;;;;;;;4.60;3.80;;;;;;;26.04;37.46;99027.78;109330;1254;65274;-77
2023/05/29 12:45:17;;;;;;;4.50;3.40;;;;;;;25.94;37.60;99027.66;109261;1254;58235;-77
2023/05/29 12:47:46;;;;;;;5.70;3.90;;;;;;;25.91;37.40;99025.48;109317;1254;58321;-76
2023/05/29 12:50:27;;;;;;;7.20;4.20;;;;;;;25.87;37.73;99025.80;109345;1254;64922;-76
2023/05/29 12:53:04;;;;;;;5.20;3.30;;;;;;;25.95;37.32;99021.27;109333;1254;61439;-77
2023/05/29 12:55:36;;;;;;;4.50;4.10;;;;;;;25.92;36.64;99020.96;109303;1254;65437;-78
2023/05/29 12:58:07;;;;;;;4.90;3.30;;;;;;;25.90;36.65;99019.43;109285;1254;58223;-76
2023/05/29 13:00:36;;;;;;;4.00;3.50;;;;;;;25.97;37.04;99015.02;109041;1254;58708;-78
2023/05/29 13:03:03;;;;;;;6.60;3.70;;;;;;;26.09;36.96;99012.70;109309;1254;66416;-76
2023/05/29 13:05:43;;;;;;;4.80;3.90;;;;;;;26.23;36.99;99007.46;109295;1254;60024;-77
2023/05/29 13:08:10;;;;;;;5.90;3.70;;;;;;;26.17;35.85;99008.20;109345;1254;65781;-76
2023/05/29 13:10:37;;;;;;;5.70;3.90;;;;;;;26.11;36.25;99005.09;109329;1254;58182;-78
2023/05/29 13:13:04;;;;;;;4.60;3.70;;;;;;;25.97;35.78;99005.57;109300;1254;58494;-78
2023/05/29 13:15:32;;;;;;;5.70;3.60;;;;;;;25.84;35.92;99005.27;109137;1254;65361;-77
2023/05/29 13:17:59;;;;;;;4.40;4.00;;;;;;;25.94;36.54;98999.42;109311;1254;59134;-77
2023/05/29 13:20:26;;;;;;;4.40;4.00;;;;;;;26.04;35.91;98995.81;109284;1254;62484;-77
2023/05/29 13:22:54;;;;;;;6.40;4.00;;;;;;;26.00;35.32;98991.02;109329;1254;58396;-78
2023/05/29 13:25:21;;;;;;;5.40;3.70;;;;;;;26.05;36.36;98986.55;109300;1254;58235;-77
2023/05/29 13:27:48;;;;;;;5.40;3.60;;;;;;;26.19;36.00;98985.52;109307;1254;65315;-77
2023/05/29 13:30:16;;;;;;;6.10;4.60;;;;;;;26.25;35.76;98981.88;109324;1254;60178;-77
2023/05/29 13:32:42;;;;;;;4.60;3.60;;;;;;;26.26;35.75;98978.60;109303;1254;64260;-77
2023/05/29 13:35:09;;;;;;;6.80;3.80;;;;;;;26.32;35.66;98975.06;109323;1254;58233;-77
2023/05/29 13:37:37;;;;;;;8.30;3.80;;;;;;;26.33;35.71;98973.75;109301;1254;58273;-77
2023/05/29 13:40:05;;;;;;;6.40;4.10;;;;;;;26.33;35.58;98969.67;109302;1254;66199;-77
2023/05/29 13:42:32;;;;;;;7.10;4.10;;;;;;;26.30;35.14;98968.78;109316;1254;60134;-77
2023/05/29 13:44:59;;;;;;;5.30;3.90;;;;;;;26.28;35.09;98963.90;108990;1254;65181;-76
2023/05/29 13:47:28;;;;;;;7.40;5.30;;;;;;;26.27;34.53;98956.16;109286;1254;58213;-77
2023/05/29 13:49:55;;;;;;;4.60;4.20;;;;;;;26.20;34.16;98957.07;109324;1254;58659;-77
2023/05/29 13:52:21;;;;;;;4.60;4.10;;;;;;;26.09;34.09;98960.71;109339;1254;63981;-77
2023/05/29 13:54:48;;;;;;;5.50;3.50;;;;;;;26.02;34.07;98962.55;109358;1254;61120;-76
2023/05/29 13:57:15;;;;;;;6.20;3.90;;;;;;;25.96;34.04;98964.40;109313;1254;64135;-78
2023/05/29 13:59:41;;;;;;;6.40;4.40;;;;;;;25.92;34.23;98960.93;109293;1254;58235;-77
2023/05/29 14:02:08;;;;;;;4.60;3.90;;;;;;;25.91;34.55;98959.45;109333;1254;58360;-77
2023/05/29 14:04:35;;;;;;;5.70;4.00;;;;;;;25.99;35.05;98954.75;109318;1254;63959;-77
2023/05/29 14:07:01;;;;;;;5.50;4.30;;;;;;;26.10;35.17;98951.17;109331;1254;60148;-77
2023/05/29 14:09:28;;;;;;;6.60;4.10;;;;;;;26.22;34.93;98950.05;109324;1254;65156;-77
2023/05/29 14:12:00;;;;;;;4.70;3.60;;;;;;;26.32;34.97;98949.04;109313;1254;58231;-76
2023/05/29 14:14:26;;;;;;;4.20;3.80;;;;;;;26.35;34.33;98948.45;109344;1254;58308;-77
2023/05/29 14:16:54;;;;;;;6.70;4.30;;;;;;;26.35;33.90;98949.76;109334;1254;65297;-77
2023/05/29 14:19:24;;;;;;;5.40;4.50;;;;;;;26.29;33.81;98950.11;109296;1254;60218;-77
2023/05/29 14:21:51;;;;;;;;;;;;;;;26.22;34.00;98945.05;109309;1254;64266;-76
2023/05/29 14:24:18;;;;;;;6.30;3.90;;;;;;;26.17;33.73;98942.84;109304;1254;58317;-76
2023/05/29 14:26:46;;;;;;;5.80;4.10;;;;;;;26.09;34.07;98939.95;109285;1254;58118;-76
2023/05/29 14:29:14;;;;;;;7.10;4.50;;;;;;;25.99;33.91;98935.92;109040;1254;65253;-77
2023/05/29 14:31:42;;;;;;;5.80;4.20;;;;;;;25.94;34.15;98938.59;109326;1254;58884;-78
2023/05/29 14:34:09;;;;;;;6.50;4.50;;;;;;;25.92;33.79;98934.84;109302;1254;65277;-77
2023/05/29 14:36:36;;;;;;;5.00;4.20;;;;;;;25.89;33.83;98937.64;109305;1254;58062;-77
2023/05/29 14:39:04;;;;;;;9.00;4.60;;;;;;;25.81;33.35;98938.09;109319;1254;58107;-76
2023/05/29 14:41:31;;;;;;;5.20;4.40;;;;;;;25.63;33.15;98934.36;109321;1254;65346;-76
2023/05/29 14:43:58;;;;;;;8.50;4.70;;;;;;;25.46;33.35;98938.92;109315;1254;60246;-76
2023/05/29 14:46:26;;;;;;;6.80;4.10;;;;;;;25.34;33.16;98936.29;109347;1254;65414;-76
2023/05/29 14:48:54;;;;;;;6.70;4.20;;;;;;;25.22;33.31;98937.80;109323;1254;58240;-76
2023/05/29 14:51:20;;;;;;;7.40;4.30;;;;;;;25.16;33.40;98935.51;109342;1254;58250;-77
2023/05/29 14:53:47;;;;;;;7.60;5.00;;;;;;;25.15;33.82;98934.33;109336;1254;63982;-77
2023/05/29 14:56:14;;;;;;;6.70;4.20;;;;;;;25.15;33.77;98934.47;109107;1254;59901;-77
2023/05/29 14:58:41;;;;;;;8.60;5.00;;;;;;;25.23;34.28;98931.88;109028;1254;65286;-76
2023/05/29 15:01:08;;;;;;;9.60;5.20;;;;;;;25.26;33.81;98934.05;109286;1254;58128;-78
2023/05/29 15:03:35;;;;;;;5.40;4.50;;;;;;;25.21;33.68;98930.81;109306;1254;58235;-76
2023/05/29 15:06:03;;;;;;;6.90;5.10;;;;;;;25.23;34.10;98931.30;109369;1254;64736;-77
2023/05/29 15:08:34;;;;;;;7.70;5.20;;;;;;;25.27;33.82;98929.56;109339;1254;60227;-77
2023/05/29 15:11:02;;;;;;;8.00;4.70;;;;;;;25.26;33.96;98928.63;109308;1254;62826;-77
2023/05/29 15:13:29;;;;;;;8.50;4.70;;;;;;;25.30;33.95;98928.95;109313;1254;58194;-78
2023/05/29 15:15:59;;;;;;;6.50;4.60;;;;;;;25.29;33.78;98929.95;109329;1254;58335;-78
2023/05/29 15:18:26;;;;;;;9.90;5.70;;;;;;;25.32;34.05;98931.41;109318;1254;65231;-77
2023/05/29 15:20:53;;;;;;;13.20;6.00;;;;;;;25.36;33.75;98927.57;109325;1254;58542;-78
2023/05/29 15:23:22;;;;;;;7.50;5.10;;;;;;;25.38;33.80;98926.11;109322;1254;65131;-78
2023/05/29 15:25:50;;;;;;;9.60;5.20;;;;;;;25.41;33.97;98922.32;109018;1254;58190;-77
2023/05/29 15:28:17;;;;;;;10.70;5.60;;;;;;;25.41;33.56;98921.30;109316;1254;58225;-77
2023/05/29 15:30:44;;;;;;;8.30;5.70;;;;;;;25.32;33.60;98919.83;109316;1254;66176;-77
2023/05/29 15:33:12;;;;;;;8.10;5.40;;;;;;;25.28;33.70;98921.81;109350;1254;59804;-77
2023/05/29 15:35:40;;;;;;;6.00;5.30;;;;;;;25.26;33.81;98923.30;109316;1254;64254;-78
2023/05/29 15:38:07;;;;;;;8.40;5.40;;;;;;;25.22;33.57;98920.56;109309;1254;58219;-78
2023/05/29 15:40:33;;;;;;;11.40;5.60;;;;;;;25.15;33.59;98921.91;109337;1254;58294;-78
2023/05/29 15:43:01;;;;;;;8.90;5.30;;;;;;;25.12;33.76;98927.20;109346;1254;65564;-78